Time,TemperatureF,DewpointF,PressureIn,WindDirection,WindDirectionDegrees,WindSpeedMPH,WindSpeedGustMPH,Humidity,HourlyPrecipIn,Conditions,Clouds,dailyrainin,SoftwareType,DateUTC
2013-05-05 00:03:00,43.7,36.0,30.34,SSE,158,0.0,0.0,74,0.00,,,0.00,WUHU216HW,2013-05-05 04:03:00,
2013-05-05 00:06:00,43.7,36.0,30.34,SSE,158,0.0,0.0,74,0.00,,,0.00,WUHU216HW,2013-05-05 04:06:00,
2013-05-05 00:13:00,43.6,35.8,30.34,SSE,158,0.0,0.0,74,0.00,,,0.00,WUHU216HW,2013-05-05 04:13:00,
2013-05-05 00:23:00,43.2,35.8,30.33,SSE,158,0.0,0.0,75,0.00,,,0.00,WUHU216HW,2013-05-05 04:23:00,
2013-05-05 00:26:00,43.0,35.7,30.33,SSE,158,0.0,0.0,75,0.00,,,0.00,WUHU216HW,2013-05-05 04:26:00,
2013-05-05 00:33:00,42.8,35.5,30.33,SSE,158,0.0,0.0,75,0.00,,,0.00,WUHU216HW,2013-05-05 04:33:00,
2013-05-05 00:43:00,42.7,35.7,30.33,SSE,158,0.0,0.0,76,0.00,,,0.00,WUHU216HW,2013-05-05 04:43:00,
2013-05-05 00:53:00,42.3,35.3,30.33,SSE,158,0.0,0.0,76,0.00,,,0.00,WUHU216HW,2013-05-05 04:53:00,
2013-05-05 00:56:00,42.1,35.4,30.33,SSE,158,0.0,0.0,77,0.00,,,0.00,WUHU216HW,2013-05-05 04:56:00,
2013-05-05 01:03:00,41.9,35.2,30.33,SSE,158,0.0,0.0,77,0.00,,,0.00,WUHU216HW,2013-05-05 05:03:00,
2013-05-05 01:13:00,41.8,35.0,30.33,SSE,158,0.0,0.0,77,0.00,,,0.00,WUHU216HW,2013-05-05 05:13:00,
2013-05-05 01:23:00,41.6,34.8,30.33,SSE,158,0.0,0.0,77,0.00,,,0.00,WUHU216HW,2013-05-05 05:23:00,
2013-05-05 01:33:00,41.4,35.0,30.32,SSE,158,0.0,0.0,78,0.00,,,0.00,WUHU216HW,2013-05-05 05:33:00,
2013-05-05 01:43:00,41.0,34.7,30.32,SSE,158,0.0,0.0,78,0.00,,,0.00,WUHU216HW,2013-05-05 05:43:00,
2013-05-05 01:53:00,40.7,34.3,30.32,SSE,158,0.0,0.0,78,0.00,,,0.00,WUHU216HW,2013-05-05 05:53:00,
2013-05-05 02:03:00,40.5,34.5,30.31,SSE,158,0.0,0.0,79,0.00,,,0.00,WUHU216HW,2013-05-05 06:03:00,
2013-05-05 02:13:00,40.3,34.3,30.31,SSE,158,0.0,0.0,79,0.00,,,0.00,WUHU216HW,2013-05-05 06:13:00,
2013-05-05 02:23:00,40.0,33.9,30.31,SSE,158,0.0,0.0,79,0.00,,,0.00,WUHU216HW,2013-05-05 06:23:00,
2013-05-05 02:33:00,40.0,33.9,30.31,SSE,158,0.0,0.0,79,0.00,,,0.00,WUHU216HW,2013-05-05 06:33:00,
2013-05-05 02:43:00,39.8,33.9,30.30,SSE,158,0.0,0.0,79,0.00,,,0.00,WUHU216HW,2013-05-05 06:43:00,
2013-05-05 02:53:00,39.6,33.7,30.30,SSE,158,0.0,0.0,79,0.00,,,0.00,WUHU216HW,2013-05-05 06:53:00,
2013-05-05 03:03:00,39.2,33.7,30.30,SSE,158,0.0,0.0,80,0.00,,,0.00,WUHU216HW,2013-05-05 07:03:00,
2013-05-05 03:13:00,39.2,33.3,30.30,SSE,158,0.0,0.0,79,0.00,,,0.00,WUHU216HW,2013-05-05 07:13:00,
2013-05-05 03:23:00,39.1,33.5,30.30,SSE,158,0.0,0.0,80,0.00,,,0.00,WUHU216HW,2013-05-05 07:23:00,
2013-05-05 03:33:00,38.9,33.3,30.30,SSE,158,0.0,0.0,80,0.00,,,0.00,WUHU216HW,2013-05-05 07:33:00,
2013-05-05 03:43:00,39.1,33.8,30.30,SSE,158,0.0,0.0,81,0.00,,,0.00,WUHU216HW,2013-05-05 07:43:00,
2013-05-05 03:53:00,39.1,33.8,30.30,SSE,158,0.0,0.0,81,0.00,,,0.00,WUHU216HW,2013-05-05 07:53:00,
2013-05-05 04:03:00,39.1,33.8,30.30,SSE,158,0.0,0.0,81,0.00,,,0.00,WUHU216HW,2013-05-05 08:03:00,
2013-05-05 04:13:00,38.9,33.6,30.30,SSE,158,0.0,0.0,81,0.00,,,0.00,WUHU216HW,2013-05-05 08:13:00,
2013-05-05 04:23:00,38.7,33.4,30.30,SSE,158,0.0,0.0,81,0.00,,,0.00,WUHU216HW,2013-05-05 08:23:00,
2013-05-05 04:33:00,38.5,33.5,30.30,SSE,158,0.0,0.0,82,0.00,,,0.00,WUHU216HW,2013-05-05 08:33:00,
2013-05-05 04:38:00,38.5,33.5,30.30,SSE,158,0.0,0.0,82,0.00,,,0.00,WUHU216HW,2013-05-05 08:38:00,
2013-05-05 04:43:00,38.5,33.5,30.30,SSE,158,0.0,0.0,82,0.00,,,0.00,WUHU216HW,2013-05-05 08:43:00,
2013-05-05 04:48:00,38.5,33.5,30.30,SSE,158,0.0,0.0,82,0.00,,,0.00,WUHU216HW,2013-05-05 08:48:00,
2013-05-05 04:53:00,38.5,33.5,30.30,SSE,158,0.0,0.0,82,0.00,,,0.00,WUHU216HW,2013-05-05 08:53:00,
2013-05-05 04:58:00,38.5,33.5,30.30,SSE,158,0.0,0.0,82,0.00,,,0.00,WUHU216HW,2013-05-05 08:58:00,
2013-05-05 05:08:00,38.7,34.0,30.30,SSE,158,0.0,0.0,83,0.00,,,0.00,WUHU216HW,2013-05-05 09:08:00,
2013-05-05 05:18:00,39.2,34.6,30.30,SSE,158,0.0,0.0,83,0.00,,,0.00,WUHU216HW,2013-05-05 09:18:00,
2013-05-05 05:28:00,39.8,35.3,30.30,SSE,158,0.0,0.0,84,0.00,,,0.00,WUHU216HW,2013-05-05 09:28:00,
2013-05-05 05:38:00,40.1,35.6,30.30,SSE,158,0.0,0.0,84,0.00,,,0.00,WUHU216HW,2013-05-05 09:38:00,
2013-05-05 05:48:00,40.9,36.4,30.30,SSE,158,0.0,0.0,84,0.00,,,0.00,WUHU216HW,2013-05-05 09:48:00,
2013-05-05 05:58:00,41.2,37.0,30.30,SE,135,0.0,0.0,85,0.00,,,0.00,WUHU216HW,2013-05-05 09:58:00,
2013-05-05 06:08:00,41.4,37.2,30.30,North,0,0.0,0.4,85,0.00,,,0.00,WUHU216HW,2013-05-05 10:08:00,
2013-05-05 06:19:00,41.8,37.5,30.31,NE,45,0.2,0.2,85,0.00,,,0.00,WUHU216HW,2013-05-05 10:19:00,
2013-05-05 06:29:00,41.9,37.7,30.31,NNW,338,0.2,0.2,85,0.00,,,0.00,WUHU216HW,2013-05-05 10:29:00,
2013-05-05 06:39:00,42.3,38.1,30.31,South,180,0.9,1.3,85,0.00,,,0.00,WUHU216HW,2013-05-05 10:39:00,
2013-05-05 06:49:00,42.7,38.4,30.31,North,0,0.2,2.2,85,0.00,,,0.00,WUHU216HW,2013-05-05 10:49:00,
2013-05-05 06:59:00,43.2,39.0,30.31,SSE,158,0.7,2.5,85,0.00,,,0.00,WUHU216HW,2013-05-05 10:59:00,
2013-05-05 07:09:00,43.9,39.1,30.31,East,90,0.7,2.7,83,0.00,,,0.00,WUHU216HW,2013-05-05 11:09:00,
2013-05-05 07:19:00,44.5,39.3,30.31,ENE,68,1.3,2.0,82,0.00,,,0.00,WUHU216HW,2013-05-05 11:19:00,
2013-05-05 07:29:00,45.0,39.5,30.32,NE,45,0.4,2.5,81,0.00,,,0.00,WUHU216HW,2013-05-05 11:29:00,
2013-05-05 07:39:00,45.4,39.9,30.32,South,180,2.5,4.0,81,0.00,,,0.00,WUHU216HW,2013-05-05 11:39:00,
2013-05-05 07:49:00,45.9,39.8,30.32,ENE,68,1.6,3.6,79,0.00,,,0.00,WUHU216HW,2013-05-05 11:49:00,
2013-05-05 07:59:00,46.6,40.1,30.32,SSE,158,2.2,5.8,78,0.00,,,0.00,WUHU216HW,2013-05-05 11:59:00,
2013-05-05 08:09:00,47.7,41.1,30.32,NE,45,0.7,2.7,78,0.00,,,0.00,WUHU216HW,2013-05-05 12:09:00,
2013-05-05 08:19:00,50.0,42.8,30.32,SSE,158,0.4,5.1,76,0.00,,,0.00,WUHU216HW,2013-05-05 12:19:00,
2013-05-05 08:29:00,51.5,42.9,30.32,ENE,68,1.3,4.5,72,0.00,,,0.00,WUHU216HW,2013-05-05 12:29:00,
2013-05-05 08:39:00,51.7,42.7,30.32,SE,135,1.6,3.8,71,0.00,,,0.00,WUHU216HW,2013-05-05 12:39:00,
2013-05-05 08:50:00,52.7,42.9,30.32,East,90,3.4,3.4,69,0.00,,,0.00,WUHU216HW,2013-05-05 12:50:00,
2013-05-05 09:00:00,54.0,43.3,30.32,North,0,1.1,3.4,67,0.00,,,0.00,WUHU216HW,2013-05-05 13:00:00,
2013-05-05 09:10:00,55.4,44.3,30.32,SE,135,3.4,3.6,66,0.00,,,0.00,WUHU216HW,2013-05-05 13:10:00,
2013-05-05 09:20:00,56.3,44.3,30.32,NNE,23,3.6,3.6,64,0.00,,,0.00,WUHU216HW,2013-05-05 13:20:00,
2013-05-05 09:30:00,56.7,44.7,30.32,SSE,158,4.0,4.0,64,0.00,,,0.00,WUHU216HW,2013-05-05 13:30:00,
2013-05-05 09:40:00,56.7,43.8,30.32,North,0,3.6,5.1,62,0.00,,,0.00,WUHU216HW,2013-05-05 13:40:00,
2013-05-05 09:50:00,56.3,43.0,30.32,NNE,23,1.6,3.8,61,0.00,,,0.00,WUHU216HW,2013-05-05 13:50:00,
2013-05-05 10:00:00,57.2,43.9,30.32,NNE,23,2.0,3.8,61,0.00,,,0.00,WUHU216HW,2013-05-05 14:00:00,
2013-05-05 10:10:00,59.0,45.6,30.32,SSW,203,0.9,2.9,61,0.00,,,0.00,WUHU216HW,2013-05-05 14:10:00,
2013-05-05 10:20:00,61.4,47.0,30.32,SE,135,0.9,2.9,59,0.00,,,0.00,WUHU216HW,2013-05-05 14:20:00,
2013-05-05 10:30:00,63.0,46.0,30.32,SE,135,3.6,3.6,54,0.00,,,0.00,WUHU216HW,2013-05-05 14:30:00,
2013-05-05 10:40:00,63.4,45.8,30.32,East,90,1.3,4.7,53,0.00,,,0.00,WUHU216HW,2013-05-05 14:40:00,
2013-05-05 10:50:00,64.4,44.8,30.32,North,0,3.6,3.6,49,0.00,,,0.00,WUHU216HW,2013-05-05 14:50:00,
2013-05-05 11:00:00,63.7,45.2,30.32,SSE,158,1.8,4.9,51,0.00,,,0.00,WUHU216HW,2013-05-05 15:00:00,
2013-05-05 11:10:00,66.6,45.7,30.32,NNE,23,3.6,3.6,47,0.00,,,0.00,WUHU216HW,2013-05-05 15:10:00,
2013-05-05 11:20:00,63.7,43.6,30.32,SW,225,0.9,6.7,48,0.00,,,0.00,WUHU216HW,2013-05-05 15:20:00,
2013-05-05 11:31:00,63.4,43.2,30.31,SE,135,1.1,4.7,48,0.00,,,0.00,WUHU216HW,2013-05-05 15:31:00,
2013-05-05 11:41:00,64.8,45.2,30.31,ENE,68,2.5,3.4,49,0.00,,,0.00,WUHU216HW,2013-05-05 15:41:00,
2013-05-05 11:51:00,63.7,44.1,30.30,North,0,1.3,3.6,49,0.00,,,0.00,WUHU216HW,2013-05-05 15:51:00,
2013-05-05 12:01:00,66.6,46.9,30.30,East,90,1.1,2.9,49,0.00,,,0.00,WUHU216HW,2013-05-05 16:01:00,
2013-05-05 12:11:00,67.1,45.6,30.30,ESE,113,0.4,4.0,46,0.00,,,0.00,WUHU216HW,2013-05-05 16:11:00,
2013-05-05 12:21:00,68.9,47.8,30.30,NNW,338,0.0,2.9,47,0.00,,,0.00,WUHU216HW,2013-05-05 16:21:00,
2013-05-05 12:31:00,69.3,47.5,30.29,South,180,2.5,3.4,46,0.00,,,0.00,WUHU216HW,2013-05-05 16:31:00,
2013-05-05 12:41:00,69.5,47.1,30.30,South,180,2.2,3.8,45,0.00,,,0.00,WUHU216HW,2013-05-05 16:41:00,
2013-05-05 12:51:00,70.6,47.5,30.29,SSW,203,0.4,4.0,44,0.00,,,0.00,WUHU216HW,2013-05-05 16:51:00,
2013-05-05 13:01:00,70.0,46.5,30.29,South,180,1.8,4.3,43,0.00,,,0.00,WUHU216HW,2013-05-05 17:01:00,
2013-05-05 13:11:00,68.0,42.8,30.29,West,270,1.1,4.7,40,0.00,,,0.00,WUHU216HW,2013-05-05 17:11:00,
2013-05-05 13:21:00,67.3,44.0,30.28,NNE,23,0.9,3.4,43,0.00,,,0.00,WUHU216HW,2013-05-05 17:21:00,
2013-05-05 13:31:00,66.6,42.1,30.28,SSE,158,1.8,4.0,41,0.00,,,0.00,WUHU216HW,2013-05-05 17:31:00,
2013-05-05 13:41:00,66.4,41.9,30.28,NE,45,1.8,5.4,41,0.00,,,0.00,WUHU216HW,2013-05-05 17:41:00,
2013-05-05 13:51:00,65.9,42.1,30.28,SE,135,1.8,3.6,42,0.00,,,0.00,WUHU216HW,2013-05-05 17:51:00,
2013-05-05 14:02:00,65.9,42.1,30.28,SW,225,1.6,4.0,42,0.00,,,0.00,WUHU216HW,2013-05-05 18:02:00,
2013-05-05 14:12:00,65.3,42.2,30.27,North,0,2.0,4.3,43,0.00,,,0.00,WUHU216HW,2013-05-05 18:12:00,
2013-05-05 14:22:00,64.6,39.8,30.27,North,0,1.8,5.4,40,0.00,,,0.00,WUHU216HW,2013-05-05 18:22:00,
2013-05-05 14:32:00,63.5,39.3,30.27,East,90,2.9,7.4,41,0.00,,,0.00,WUHU216HW,2013-05-05 18:32:00,
2013-05-05 14:42:00,63.7,39.5,30.27,SSE,158,0.9,5.1,41,0.00,,,0.00,WUHU216HW,2013-05-05 18:42:00,
2013-05-05 14:52:00,63.4,39.8,30.27,South,180,3.4,4.7,42,0.00,,,0.00,WUHU216HW,2013-05-05 18:52:00,
2013-05-05 15:02:00,63.2,38.4,30.27,North,0,3.6,6.7,40,0.00,,,0.00,WUHU216HW,2013-05-05 19:02:00,
2013-05-05 15:12:00,63.2,39.1,30.26,SE,135,3.4,5.8,41,0.00,,,0.00,WUHU216HW,2013-05-05 19:12:00,
2013-05-05 15:22:00,63.0,38.4,30.26,ESE,113,1.8,5.6,40,0.00,,,0.00,WUHU216HW,2013-05-05 19:22:00,
2013-05-05 15:32:00,63.2,38.4,30.26,NE,45,1.3,4.0,40,0.00,,,0.00,WUHU216HW,2013-05-05 19:32:00,
2013-05-05 15:42:00,63.0,38.4,30.26,South,180,2.0,4.3,40,0.00,,,0.00,WUHU216HW,2013-05-05 19:42:00,
2013-05-05 15:52:00,63.2,41.3,30.26,East,90,1.8,3.8,45,0.00,,,0.00,WUHU216HW,2013-05-05 19:52:00,
2013-05-05 16:03:00,62.8,43.3,30.26,SE,135,3.4,4.0,49,0.00,,,0.00,WUHU216HW,2013-05-05 20:03:00,
2013-05-05 16:13:00,62.6,43.7,30.26,NNW,338,1.6,5.8,50,0.00,,,0.00,WUHU216HW,2013-05-05 20:13:00,
2013-05-05 16:23:00,62.3,43.9,30.26,NE,45,3.4,5.8,51,0.00,,,0.00,WUHU216HW,2013-05-05 20:23:00,
2013-05-05 16:33:00,62.3,43.9,30.26,SSW,203,1.8,3.8,51,0.00,,,0.00,WUHU216HW,2013-05-05 20:33:00,
2013-05-05 16:43:00,61.9,43.6,30.25,ENE,68,3.4,3.4,51,0.00,,,0.00,WUHU216HW,2013-05-05 20:43:00,
2013-05-05 16:53:00,61.9,44.1,30.26,South,180,2.5,4.5,52,0.00,,,0.00,WUHU216HW,2013-05-05 20:53:00,
2013-05-05 17:03:00,61.7,43.9,30.26,SSE,158,2.9,3.4,52,0.00,,,0.00,WUHU216HW,2013-05-05 21:03:00,
2013-05-05 17:13:00,62.1,44.2,30.26,ESE,113,2.5,4.0,52,0.00,,,0.00,WUHU216HW,2013-05-05 21:13:00,
2013-05-05 17:23:00,62.6,44.2,30.25,SSW,203,0.9,2.7,51,0.00,,,0.00,WUHU216HW,2013-05-05 21:23:00,
2013-05-05 17:33:00,62.3,43.9,30.26,East,90,1.8,3.6,51,0.00,,,0.00,WUHU216HW,2013-05-05 21:33:00,
2013-05-05 17:43:00,61.6,44.2,30.26,SE,135,1.1,5.4,53,0.00,,,0.00,WUHU216HW,2013-05-05 21:43:00,
2013-05-05 17:53:00,61.0,44.2,30.26,SSE,158,1.6,4.5,54,0.00,,,0.00,WUHU216HW,2013-05-05 21:53:00,
2013-05-05 18:03:00,60.7,44.4,30.26,SSE,158,2.0,5.4,55,0.00,,,0.00,WUHU216HW,2013-05-05 22:03:00,
2013-05-05 18:13:00,60.3,44.0,30.26,SE,135,1.1,3.1,55,0.00,,,0.00,WUHU216HW,2013-05-05 22:13:00,
2013-05-05 18:23:00,59.9,44.2,30.26,East,90,1.8,4.5,56,0.00,,,0.00,WUHU216HW,2013-05-05 22:23:00,
2013-05-05 18:34:00,59.4,43.2,30.27,South,180,2.5,2.5,55,0.00,,,0.00,WUHU216HW,2013-05-05 22:34:00,
2013-05-05 18:44:00,58.7,43.5,30.27,WSW,248,2.2,3.6,57,0.00,,,0.00,WUHU216HW,2013-05-05 22:44:00,
2013-05-05 18:54:00,58.3,43.1,30.27,South,180,1.1,3.4,57,0.00,,,0.00,WUHU216HW,2013-05-05 22:54:00,
2013-05-05 19:04:00,58.3,43.6,30.27,SE,135,0.7,1.3,58,0.00,,,0.00,WUHU216HW,2013-05-05 23:04:00,
2013-05-05 19:14:00,58.0,43.3,30.27,SE,135,1.1,3.1,58,0.00,,,0.00,WUHU216HW,2013-05-05 23:14:00,
2013-05-05 19:24:00,57.4,42.8,30.27,SE,135,0.4,1.8,58,0.00,,,0.00,WUHU216HW,2013-05-05 23:24:00,
2013-05-05 19:34:00,56.7,42.1,30.27,SE,135,0.9,3.8,58,0.00,,,0.00,WUHU216HW,2013-05-05 23:34:00,
2013-05-05 19:44:00,55.6,41.5,30.27,South,180,0.0,2.0,59,0.00,,,0.00,WUHU216HW,2013-05-05 23:44:00,
2013-05-05 19:54:00,55.1,41.4,30.27,SSE,158,0.0,2.2,60,0.00,,,0.00,WUHU216HW,2013-05-05 23:54:00,
2013-05-05 20:04:00,54.4,41.2,30.28,South,180,0.7,0.9,61,0.00,,,0.00,WUHU216HW,2013-05-06 00:04:00,
2013-05-05 20:14:00,53.6,41.0,30.28,ESE,113,0.4,2.5,62,0.00,,,0.00,WUHU216HW,2013-05-06 00:14:00,
2013-05-05 20:24:00,52.9,40.6,30.28,SSE,158,1.1,1.1,63,0.00,,,0.00,WUHU216HW,2013-05-06 00:24:00,
2013-05-05 20:34:00,52.2,40.3,30.28,SSE,158,0.0,0.9,64,0.00,,,0.00,WUHU216HW,2013-05-06 00:34:00,
2013-05-05 20:44:00,51.5,40.1,30.28,South,180,0.2,1.1,65,0.00,,,0.00,WUHU216HW,2013-05-06 00:44:00,
2013-05-05 20:54:00,50.9,39.5,30.29,SE,135,0.0,0.4,65,0.00,,,0.00,WUHU216HW,2013-05-06 00:54:00,
2013-05-05 21:04:00,50.4,39.1,30.29,SSE,158,0.0,0.4,65,0.00,,,0.00,WUHU216HW,2013-05-06 01:04:00,
2013-05-05 21:14:00,49.7,38.8,30.29,SSE,158,0.0,1.1,66,0.00,,,0.00,WUHU216HW,2013-05-06 01:14:00,
2013-05-05 21:24:00,49.3,38.8,30.29,SSE,158,0.0,0.0,67,0.00,,,0.00,WUHU216HW,2013-05-06 01:24:00,
2013-05-05 21:34:00,48.8,38.3,30.30,SSE,158,0.0,0.0,67,0.00,,,0.00,WUHU216HW,2013-05-06 01:34:00,
2013-05-05 21:44:00,48.2,38.2,30.30,SSE,158,0.0,0.0,68,0.00,,,0.00,WUHU216HW,2013-05-06 01:44:00,
2013-05-05 21:54:00,47.9,37.8,30.30,SSE,158,0.0,0.0,68,0.00,,,0.00,WUHU216HW,2013-05-06 01:54:00,
2013-05-05 22:04:00,47.2,37.5,30.30,SSE,158,0.0,0.0,69,0.00,,,0.00,WUHU216HW,2013-05-06 02:04:00,
2013-05-05 22:14:00,46.8,37.6,30.30,SSE,158,0.0,0.0,70,0.00,,,0.00,WUHU216HW,2013-05-06 02:14:00,
2013-05-05 22:24:00,46.3,37.5,30.29,SSE,158,0.0,0.0,71,0.00,,,0.00,WUHU216HW,2013-05-06 02:24:00,
2013-05-05 22:34:00,45.7,37.3,30.28,SSE,158,0.0,0.0,72,0.00,,,0.00,WUHU216HW,2013-05-06 02:34:00,
2013-05-05 22:44:00,45.4,36.9,30.28,SSE,158,0.0,0.0,72,0.00,,,0.00,WUHU216HW,2013-05-06 02:44:00,
2013-05-05 22:54:00,44.8,36.6,30.28,SSE,158,0.0,0.0,73,0.00,,,0.00,WUHU216HW,2013-05-06 02:54:00,
2013-05-05 23:04:00,44.5,36.6,30.28,SSE,158,0.0,0.0,74,0.00,,,0.00,WUHU216HW,2013-05-06 03:04:00,
2013-05-05 23:14:00,44.1,36.4,30.29,SSE,158,0.0,0.0,74,0.00,,,0.00,WUHU216HW,2013-05-06 03:14:00,
2013-05-05 23:24:00,43.9,36.2,30.28,SSE,158,0.0,0.0,74,0.00,,,0.00,WUHU216HW,2013-05-06 03:24:00,
2013-05-05 23:34:00,43.6,36.2,30.28,SSE,158,0.0,0.0,75,0.00,,,0.00,WUHU216HW,2013-05-06 03:34:00,
2013-05-05 23:44:00,43.0,35.7,30.28,SSE,158,0.0,0.0,75,0.00,,,0.00,WUHU216HW,2013-05-06 03:44:00,
2013-05-05 23:54:00,42.8,35.8,30.28,SSE,158,0.0,0.0,76,0.00,,,0.00,WUHU216HW,2013-05-06 03:54:00,